Time;durP1;ratioP1;P1;durP2;ratioP2;P2;SDS_P1;SDS_P2;PMS_P1;PMS_P2;Temp;Humidity;BMP_temperature;BMP_pressure;BME280_temperature;BME280_humidity;BME280_pressure;Samples;Min_cycle;Max_cycle;Signal;HPM_P1;HPM_P2
2022/08/18 00:01:48;;;;;;;17.92;5.40;;;19.10;99.90;;;;;;5022186;28;20060;-59
2022/08/18 00:04:15;;;;;;;16.05;5.47;;;19.10;99.90;;;;;;5023166;28;20045;-58
2022/08/18 00:06:41;;;;;;;18.35;5.18;;;19.00;99.90;;;;;;5024350;28;20492;-59
2022/08/18 00:09:08;;;;;;;21.30;5.45;;;19.10;99.90;;;;;;5022639;28;20237;-58
2022/08/18 00:11:41;;;;;;;17.90;5.88;;;19.00;99.90;;;;;;5023607;28;20053;-59
2022/08/18 00:14:10;;;;;;;17.52;5.53;;;19.00;99.90;;;;;;5023202;28;20044;-59
2022/08/18 00:16:36;;;;;;;15.82;5.68;;;19.00;99.90;;;;;;5021817;28;20541;-58
2022/08/18 00:19:01;;;;;;;19.10;5.93;;;19.00;99.90;;;;;;5024084;28;20053;-59
2022/08/18 00:21:27;;;;;;;14.80;5.15;;;19.00;99.90;;;;;;5006391;28;20080;-58
2022/08/18 00:23:53;;;;;;;13.88;5.18;;;19.00;99.90;;;;;;5023814;28;20494;-59
2022/08/18 00:26:19;;;;;;;16.17;5.25;;;19.00;99.90;;;;;;5023382;28;20051;-58
2022/08/18 00:28:45;;;;;;;13.23;5.20;;;19.00;99.90;;;;;;5024121;28;20033;-59
2022/08/18 00:31:10;;;;;;;12.27;5.18;;;19.00;99.90;;;;;;5005199;28;20129;-58
2022/08/18 00:33:37;;;;;;;14.68;5.20;;;19.00;99.90;;;;;;5025170;28;20144;-58
2022/08/18 00:36:03;;;;;;;18.13;5.70;;;19.00;99.90;;;;;;5021879;28;20057;-58
2022/08/18 00:38:28;;;;;;;13.13;5.30;;;19.00;99.90;;;;;;5022874;28;20052;-58
2022/08/18 00:40:55;;;;;;;14.45;5.90;;;18.90;99.90;;;;;;5022504;28;20533;-59
2022/08/18 00:43:48;;;;;;;17.70;6.32;;;18.90;99.90;;;;;;5023678;28;20045;-58
2022/08/18 00:46:15;;;;;;;;;;;18.90;99.90;;;;;;5021161;28;20054;-58
2022/08/18 00:48:41;;;;;;;14.07;5.78;;;18.90;99.90;;;;;;5024005;28;19921;-58
2022/08/18 00:51:28;;;;;;;18.77;5.80;;;18.90;99.90;;;;;;5021469;28;20119;-58
2022/08/18 00:54:12;;;;;;;16.50;5.43;;;18.90;99.90;;;;;;5021920;28;20100;-58
2022/08/18 00:56:54;;;;;;;14.10;5.60;;;18.90;99.90;;;;;;5022472;28;20038;-58
2022/08/18 00:59:28;;;;;;;22.37;6.63;;;18.90;99.90;;;;;;5023037;28;20374;-59
2022/08/18 01:02:01;;;;;;;18.80;5.75;;;18.90;99.90;;;;;;5022087;28;20939;-58
2022/08/18 01:04:40;;;;;;;19.23;6.50;;;18.90;99.90;;;;;;5019993;28;20142;-58
2022/08/18 01:07:21;;;;;;;13.20;5.88;;;18.90;99.90;;;;;;5023101;28;20754;-58
2022/08/18 01:09:49;;;;;;;17.58;5.55;;;18.90;99.90;;;;;;5023936;28;20103;-58
2022/08/18 01:12:15;;;;;;;19.48;6.03;;;18.90;99.90;;;;;;5022930;28;20095;-59
2022/08/18 01:14:41;;;;;;;18.50;6.65;;;18.90;99.90;;;;;;5020233;28;20081;-58
2022/08/18 01:22:48;;;;;;;18.10;6.05;;;18.90;99.90;;;;;;5022029;28;20060;-59
2022/08/18 01:28:02;;;;;;;15.20;5.32;;;18.90;99.90;;;;;;5021108;28;20037;-58
2022/08/18 01:30:29;;;;;;;17.40;5.47;;;18.90;99.90;;;;;;5022793;28;20446;-57
2022/08/18 01:32:55;;;;;;;12.70;5.82;;;18.90;99.90;;;;;;5021142;28;20046;-59
2022/08/18 01:35:26;;;;;;;18.10;5.90;;;18.90;99.90;;;;;;5022491;28;20041;-59
2022/08/18 01:37:53;;;;;;;16.23;6.20;;;19.00;99.90;;;;;;5020107;28;20052;-57
2022/08/18 01:40:22;;;;;;;17.52;6.55;;;19.00;99.90;;;;;;5021828;28;20029;-59
2022/08/18 01:42:48;;;;;;;17.88;6.65;;;19.00;99.90;;;;;;5021629;28;20550;-59
2022/08/18 01:45:16;;;;;;;18.25;6.30;;;19.00;99.90;;;;;;5022097;28;20045;-59
2022/08/18 01:47:42;;;;;;;18.50;6.68;;;19.00;99.90;;;;;;5020462;28;20068;-59
2022/08/18 01:50:11;;;;;;;25.13;7.32;;;19.00;99.90;;;;;;5021307;28;20052;-59
2022/08/18 01:52:37;;;;;;;21.27;6.75;;;19.00;99.90;;;;;;5021720;28;20041;-60
2022/08/18 01:55:04;;;;;;;14.13;6.22;;;19.00;99.90;;;;;;5020349;28;20041;-59
2022/08/18 01:57:30;;;;;;;19.23;6.00;;;19.00;99.90;;;;;;5021809;28;20099;-59
2022/08/18 01:59:59;;;;;;;18.08;6.50;;;19.00;99.90;;;;;;5022435;28;20053;-59
2022/08/18 02:02:30;;;;;;;20.88;6.43;;;19.00;99.90;;;;;;5019353;28;20048;-60
2022/08/18 02:05:02;;;;;;;19.85;6.97;;;19.00;99.90;;;;;;5019553;28;20037;-58
2022/08/18 02:07:28;;;;;;;;;;;19.00;99.90;;;;;;5020879;28;20095;-59
2022/08/18 02:09:54;;;;;;;18.10;7.10;;;19.00;99.90;;;;;;5022158;28;19929;-59
2022/08/18 02:12:20;;;;;;;17.25;6.95;;;19.00;99.90;;;;;;5020161;28;20056;-59
2022/08/18 02:14:46;;;;;;;18.00;5.60;;;19.10;99.90;;;;;;5020961;28;20053;-59
2022/08/18 02:17:13;;;;;;;15.93;6.47;;;19.10;99.90;;;;;;5021527;28;20513;-59
2022/08/18 02:19:45;;;;;;;17.40;6.22;;;19.00;99.90;;;;;;5020295;28;20083;-59
2022/08/18 02:22:14;;;;;;;18.08;6.63;;;19.10;99.90;;;;;;5020824;28;20069;-59
2022/08/18 02:24:41;;;;;;;17.15;6.57;;;19.00;99.90;;;;;;5004169;28;20385;-59
2022/08/18 02:27:08;;;;;;;21.15;6.72;;;19.10;99.90;;;;;;5037407;28;20049;-59
2022/08/18 02:29:35;;;;;;;17.02;6.65;;;19.10;99.90;;;;;;5021343;28;20103;-59
2022/08/18 02:32:01;;;;;;;20.08;6.35;;;19.10;99.90;;;;;;5036361;28;20511;-59
2022/08/18 02:34:27;;;;;;;14.40;5.88;;;19.00;99.90;;;;;;5020517;28;20044;-59
2022/08/18 02:36:53;;;;;;;16.27;5.68;;;19.00;99.90;;;;;;5018852;28;20049;-58
2022/08/18 02:39:19;;;;;;;14.02;5.90;;;19.10;99.90;;;;;;5021486;28;20120;-59
2022/08/18 02:41:45;;;;;;;18.27;5.88;;;19.10;99.90;;;;;;5020185;28;20040;-58
2022/08/18 02:44:11;;;;;;;20.48;6.72;;;19.00;99.90;;;;;;5021268;28;20037;-58
2022/08/18 02:46:37;;;;;;;17.10;6.47;;;19.10;99.90;;;;;;5019992;28;20045;-59
2022/08/18 02:49:06;;;;;;;13.88;5.60;;;19.00;99.90;;;;;;5021197;28;20049;-59
2022/08/18 02:51:32;;;;;;;17.70;6.53;;;19.00;99.90;;;;;;5019643;28;20050;-59
2022/08/18 02:53:58;;;;;;;14.18;5.78;;;19.10;99.90;;;;;;5019582;28;20049;-58
2022/08/18 02:56:27;;;;;;;17.77;6.22;;;19.10;99.90;;;;;;5019890;28;20037;-58
2022/08/18 02:58:54;;;;;;;14.30;6.30;;;19.10;99.90;;;;;;5020810;28;20142;-59
2022/08/18 03:01:26;;;;;;;14.23;5.22;;;19.10;99.90;;;;;;5020415;28;20128;-59
2022/08/18 03:03:53;;;;;;;16.58;6.72;;;19.10;99.90;;;;;;5020389;28;20073;-58
2022/08/18 03:06:20;;;;;;;13.73;5.82;;;19.10;99.90;;;;;;5021154;28;20045;-59
2022/08/18 03:08:49;;;;;;;15.82;6.80;;;19.10;99.90;;;;;;5019282;28;20120;-58
2022/08/18 03:11:20;;;;;;;13.80;6.13;;;19.10;99.90;;;;;;5019955;28;20076;-59
2022/08/18 03:13:46;;;;;;;17.17;6.20;;;19.10;99.90;;;;;;5019518;28;20453;-59
2022/08/18 03:16:14;;;;;;;14.15;5.70;;;19.10;99.90;;;;;;5019965;28;20045;-59
2022/08/18 03:18:41;;;;;;;18.58;6.43;;;19.10;99.90;;;;;;5020673;28;20034;-59
2022/08/18 03:21:09;;;;;;;15.63;5.97;;;19.20;99.90;;;;;;5019771;28;20126;-58
2022/08/18 03:23:37;;;;;;;11.25;5.78;;;19.10;99.90;;;;;;5019255;28;20045;-59
2022/08/18 03:26:03;;;;;;;12.18;5.55;;;19.10;99.90;;;;;;5020361;28;20400;-58
2022/08/18 03:28:29;;;;;;;20.85;6.10;;;19.20;99.90;;;;;;5020327;28;20050;-58
2022/08/18 03:30:54;;;;;;;12.50;5.57;;;19.20;99.90;;;;;;5020150;28;20042;-59
2022/08/18 03:33:20;;;;;;;13.88;6.10;;;19.20;99.90;;;;;;5019866;28;20077;-59
2022/08/18 03:35:47;;;;;;;12.32;5.85;;;19.20;99.90;;;;;;5018363;28;20048;-59
2022/08/18 03:38:12;;;;;;;12.82;5.97;;;19.20;99.90;;;;;;5017105;28;20104;-60
2022/08/18 03:40:38;;;;;;;15.07;6.95;;;19.20;99.90;;;;;;5003342;28;20559;-59
2022/08/18 03:43:05;;;;;;;15.32;6.60;;;19.20;99.90;;;;;;5019963;28;20111;-59
2022/08/18 03:45:33;;;;;;;12.98;5.57;;;19.20;99.90;;;;;;5020654;28;20046;-58
2022/08/18 03:48:00;;;;;;;14.88;5.82;;;19.20;99.90;;;;;;5019060;28;20129;-58
2022/08/18 03:50:27;;;;;;;12.05;5.55;;;19.20;99.90;;;;;;5020127;28;20519;-59
2022/08/18 03:52:54;;;;;;;16.08;6.30;;;19.20;99.90;;;;;;5020257;28;20041;-59
2022/08/18 03:55:20;;;;;;;11.18;6.20;;;19.20;99.90;;;;;;5020855;28;20049;-59
2022/08/18 03:57:46;;;;;;;13.68;5.53;;;19.20;99.90;;;;;;5020789;28;20085;-60
2022/08/18 04:00:13;;;;;;;14.65;5.97;;;19.20;99.90;;;;;;5020281;28;20072;-59
2022/08/18 04:02:39;;;;;;;11.00;5.68;;;19.20;99.90;;;;;;5021981;28;20041;-59
2022/08/18 04:05:06;;;;;;;13.57;5.47;;;19.20;99.90;;;;;;5023978;28;20053;-58
2022/08/18 04:07:32;;;;;;;10.32;5.25;;;19.20;99.90;;;;;;5023186;28;20111;-59
2022/08/18 04:09:58;;;;;;;11.60;5.72;;;19.20;99.90;;;;;;5023250;28;20415;-59
2022/08/18 04:12:24;;;;;;;14.60;5.50;;;19.20;99.90;;;;;;5023988;28;20057;-59
2022/08/18 04:14:50;;;;;;;14.40;6.15;;;19.20;99.90;;;;;;5023623;28;20124;-59
2022/08/18 04:17:23;;;;;;;14.27;6.65;;;19.20;99.90;;;;;;5022045;28;20045;-59
2022/08/18 04:19:54;;;;;;;14.15;6.20;;;19.20;99.90;;;;;;5023290;28;20123;-59
2022/08/18 04:22:21;;;;;;;13.85;6.20;;;19.20;99.90;;;;;;5023189;28;20610;-59
2022/08/18 04:24:48;;;;;;;11.93;5.88;;;19.20;99.90;;;;;;5024750;28;20063;-59
2022/08/18 04:27:15;;;;;;;12.52;6.30;;;19.20;99.90;;;;;;5022936;28;20056;-58
2022/08/18 04:29:41;;;;;;;15.07;6.03;;;19.20;99.90;;;;;;5023346;28;20045;-58
2022/08/18 04:32:07;;;;;;;8.15;5.47;;;19.20;99.90;;;;;;5024001;28;20048;-59
2022/08/18 04:34:33;;;;;;;12.63;5.70;;;19.20;99.90;;;;;;5021613;28;20556;-59
2022/08/18 04:37:01;;;;;;;10.80;5.18;;;19.20;99.90;;;;;;5025018;28;20056;-59
2022/08/18 04:39:27;;;;;;;11.45;5.57;;;19.20;99.90;;;;;;5022584;28;20057;-59
2022/08/18 04:41:53;;;;;;;20.58;6.47;;;19.20;99.90;;;;;;5023312;28;20469;-59
2022/08/18 04:44:20;;;;;;;13.13;5.97;;;19.20;99.90;;;;;;5020722;28;20041;-58
2022/08/18 04:46:51;;;;;;;10.65;5.78;;;19.20;99.90;;;;;;5023701;28;20045;-59
2022/08/18 04:49:20;;;;;;;9.70;5.15;;;19.20;99.90;;;;;;5023333;28;20555;-58
2022/08/18 04:54:37;;;;;;;10.00;7.30;;;19.20;99.90;;;;;;5023060;28;20470;-59
2022/08/18 04:57:16;;;;;;;17.45;7.55;;;19.20;99.90;;;;;;5021397;28;20120;-59
2022/08/18 04:59:44;;;;;;;16.25;7.95;;;19.20;99.90;;;;;;5022634;28;20045;-59
2022/08/18 05:02:11;;;;;;;13.48;7.88;;;19.10;99.90;;;;;;5021511;28;20077;-58
2022/08/18 05:04:39;;;;;;;13.07;7.03;;;19.10;99.90;;;;;;5021727;28;20045;-59
2022/08/18 05:07:10;;;;;;;12.85;6.72;;;19.20;99.90;;;;;;5023430;28;20049;-59
2022/08/18 05:09:38;;;;;;;12.43;6.28;;;19.20;99.90;;;;;;5022006;28;20050;-59
2022/08/18 05:12:05;;;;;;;13.82;5.72;;;19.10;99.90;;;;;;5020514;28;20133;-59
2022/08/18 05:14:32;;;;;;;13.52;5.55;;;19.10;99.90;;;;;;5022542;28;20033;-58
2022/08/18 05:16:59;;;;;;;12.77;4.93;;;19.10;99.90;;;;;;5021404;28;20048;-58
2022/08/18 05:19:27;;;;;;;12.32;4.63;;;19.20;99.90;;;;;;5023392;28;21314;-58
2022/08/18 05:21:57;;;;;;;9.52;4.63;;;19.10;99.90;;;;;;5022855;28;20497;-58
2022/08/18 05:24:26;;;;;;;8.77;4.82;;;19.10;99.90;;;;;;5022818;28;20041;-59
2022/08/18 05:26:52;;;;;;;10.88;4.30;;;19.20;99.90;;;;;;5019563;28;20106;-59
2022/08/18 05:29:22;;;;;;;15.88;4.70;;;19.20;99.90;;;;;;5021488;28;20057;-58
2022/08/18 05:31:49;;;;;;;10.93;4.53;;;19.20;99.90;;;;;;5023010;28;20504;-58
2022/08/18 05:34:16;;;;;;;12.85;4.95;;;19.20;99.90;;;;;;5022633;28;20114;-58
2022/08/18 05:36:49;;;;;;;10.10;4.60;;;19.30;99.90;;;;;;5019327;28;20036;-60
2022/08/18 05:39:43;;;;;;;12.38;4.68;;;19.20;99.90;;;;;;5022190;28;20045;-58
2022/08/18 05:42:19;;;;;;;10.18;4.85;;;19.30;99.90;;;;;;5017588;28;20041;-57
2022/08/18 05:44:53;;;;;;;15.30;5.03;;;19.30;99.90;;;;;;5020856;28;20045;-59
2022/08/18 05:47:28;;;;;;;14.90;5.45;;;19.30;99.90;;;;;;5020938;28;20045;-59
2022/08/18 05:49:56;;;;;;;12.02;5.15;;;19.40;99.90;;;;;;5005550;28;20388;-58
2022/08/18 05:53:04;;;;;;;11.93;5.68;;;19.40;99.90;;;;;;5020841;28;20459;-58
2022/08/18 05:58:23;;;;;;;14.65;5.38;;;19.50;99.90;;;;;;5020929;28;20564;-59
2022/08/18 06:00:55;;;;;;;11.10;5.03;;;19.50;99.90;;;;;;5020832;28;20045;-58
2022/08/18 06:03:26;;;;;;;12.10;5.40;;;19.50;99.90;;;;;;5019814;28;20475;-59
2022/08/18 06:06:00;;;;;;;13.73;5.20;;;19.50;99.90;;;;;;5020502;28;20172;-58
2022/08/18 06:08:56;;;;;;;10.27;5.35;;;19.50;99.90;;;;;;5019828;28;20103;-58
2022/08/18 06:11:22;;;;;;;9.68;4.47;;;19.50;99.90;;;;;;5028935;28;20057;-59
2022/08/18 06:13:49;;;;;;;16.45;5.63;;;19.50;99.90;;;;;;5020690;28;20045;-59
2022/08/18 06:16:33;;;;;;;15.70;4.85;;;19.60;99.90;;;;;;5021438;28;20081;-59
2022/08/18 06:19:08;;;;;;;19.17;5.03;;;19.60;99.90;;;;;;5022161;28;20120;-60
2022/08/18 06:21:44;;;;;;;15.50;4.53;;;19.60;99.90;;;;;;5020800;28;20041;-58
2022/08/18 06:24:18;;;;;;;16.63;4.70;;;19.60;99.90;;;;;;5020433;28;20112;-57
2022/08/18 06:26:47;;;;;;;14.48;4.22;;;19.50;99.90;;;;;;5021059;28;20051;-58
2022/08/18 06:29:51;;;;;;;14.02;4.22;;;19.50;99.90;;;;;;5005065;28;20558;-59
2022/08/18 06:32:29;;;;;;;17.33;3.70;;;19.50;99.90;;;;;;5021072;28;20123;-59
2022/08/18 06:35:25;;;;;;;15.65;3.65;;;19.50;99.90;;;;;;5020079;28;20045;-60
2022/08/18 06:38:37;;;;;;;11.50;3.63;;;19.50;99.90;;;;;;5021327;28;20806;-59
2022/08/18 06:41:09;;;;;;;11.50;3.83;;;19.50;99.90;;;;;;5020960;28;20064;-59
2022/08/18 06:43:36;;;;;;;;;;;19.50;99.90;;;;;;5021855;28;20064;-59
2022/08/18 06:46:09;;;;;;;16.73;3.42;;;19.50;99.90;;;;;;5020990;28;20287;-59
2022/08/18 06:48:55;;;;;;;15.38;3.45;;;19.40;99.90;;;;;;5021113;28;20125;-59
2022/08/18 06:51:26;;;;;;;17.38;3.38;;;19.40;99.90;;;;;;5019677;28;20065;-59
2022/08/18 06:53:52;;;;;;;16.85;3.70;;;19.40;99.90;;;;;;5020635;28;20037;-59
2022/08/18 06:56:35;;;;;;;10.10;2.78;;;19.40;99.90;;;;;;5019681;28;20208;-59
2022/08/18 06:59:32;;;;;;;15.88;3.67;;;19.40;99.90;;;;;;5021570;28;20045;-58
2022/08/18 07:02:29;;;;;;;17.88;3.88;;;19.30;99.90;;;;;;5017388;28;20132;-58
2022/08/18 07:04:58;;;;;;;13.35;3.47;;;19.30;99.90;;;;;;5035577;28;20513;-58
2022/08/18 07:07:38;;;;;;;17.55;4.13;;;19.30;99.90;;;;;;5021893;28;20647;-59
2022/08/18 07:10:26;;;;;;;16.35;3.67;;;19.30;99.90;;;;;;5021513;28;20869;-58
2022/08/18 07:13:14;;;;;;;10.18;3.20;;;19.20;99.90;;;;;;5020550;28;20049;-59
2022/08/18 07:15:41;;;;;;;13.10;3.58;;;19.20;99.90;;;;;;5021057;28;20050;-59
2022/08/18 07:18:13;;;;;;;11.50;3.05;;;19.20;99.90;;;;;;5019946;28;20044;-58
2022/08/18 07:20:52;;;;;;;15.35;3.60;;;19.20;99.90;;;;;;5020314;28;20384;-57
2022/08/18 07:23:56;;;;;;;11.63;2.90;;;19.20;99.90;;;;;;5020644;28;20049;-59
2022/08/18 07:26:22;;;;;;;9.32;2.95;;;19.20;99.90;;;;;;5021674;28;20056;-58
2022/08/18 07:28:51;;;;;;;15.27;3.25;;;19.30;99.90;;;;;;5019578;28;20566;-58
2022/08/18 07:31:38;;;;;;;12.27;3.30;;;19.30;99.90;;;;;;5021280;28;20049;-59
2022/08/18 07:34:20;;;;;;;9.05;3.08;;;19.40;99.90;;;;;;5021881;28;20084;-59
2022/08/18 07:36:54;;;;;;;13.02;3.28;;;19.40;99.90;;;;;;5025193;28;20056;-58
2022/08/18 07:39:41;;;;;;;8.43;2.72;;;19.40;99.90;;;;;;5025097;28;20038;-59
2022/08/18 07:42:22;;;;;;;7.47;2.95;;;19.50;99.90;;;;;;5021832;28;20408;-59
2022/08/18 07:45:01;;;;;;;8.15;2.05;;;19.60;99.90;;;;;;5023860;28;20099;-59
2022/08/18 07:47:48;;;;;;;9.57;2.50;;;19.60;99.90;;;;;;5024580;28;20041;-59
2022/08/18 07:50:14;;;;;;;6.30;2.30;;;19.60;99.90;;;;;;5023871;28;20050;-59
2022/08/18 07:52:58;;;;;;;7.90;2.45;;;19.70;99.90;;;;;;5024372;28;20049;-58
2022/08/18 07:55:31;;;;;;;8.98;2.50;;;19.70;99.90;;;;;;5023886;28;20511;-59
2022/08/18 07:58:31;;;;;;;8.05;2.58;;;19.70;99.90;;;;;;5023705;28;20049;-59
2022/08/18 08:01:00;;;;;;;8.43;1.98;;;19.70;99.90;;;;;;5022727;28;20057;-59
2022/08/18 08:03:55;;;;;;;5.60;2.13;;;19.70;99.90;;;;;;5021429;28;20042;-58
2022/08/18 08:07:02;;;;;;;4.75;1.90;;;19.90;99.90;;;;;;5022281;28;20057;-59
2022/08/18 08:09:40;;;;;;;6.57;2.25;;;20.00;99.90;;;;;;4965231;28;20640;-59
2022/08/18 08:12:29;;;;;;;5.43;2.42;;;20.10;99.90;;;;;;4963495;28;20050;-59
2022/08/18 08:15:06;;;;;;;6.90;2.00;;;20.10;99.90;;;;;;5003453;28;20551;-58
2022/08/18 08:18:16;;;;;;;7.75;1.70;;;20.20;99.90;;;;;;5023198;28;20045;-57
2022/08/18 08:20:57;;;;;;;2.75;1.38;;;20.20;99.90;;;;;;4979203;28;20509;-59
2022/08/18 08:23:50;;;;;;;4.65;1.60;;;20.30;99.90;;;;;;4980885;28;20223;-58
2022/08/18 08:26:34;;;;;;;4.60;1.80;;;20.50;99.90;;;;;;5025331;28;20133;-59
2022/08/18 08:29:21;;;;;;;6.15;1.80;;;20.50;99.90;;;;;;5040361;28;20047;-59
2022/08/18 08:32:05;;;;;;;5.35;1.70;;;20.50;99.90;;;;;;5022818;28;20060;-59
2022/08/18 08:34:47;;;;;;;4.07;1.70;;;20.60;99.90;;;;;;5023214;28;20060;-59
2022/08/18 08:37:22;;;;;;;5.10;1.80;;;20.60;99.90;;;;;;5024184;28;20049;-59
2022/08/18 08:40:20;;;;;;;2.47;1.45;;;20.50;99.90;;;;;;5024039;28;20476;-59
2022/08/18 08:43:10;;;;;;;5.32;1.60;;;20.50;99.90;;;;;;5021699;28;20492;-58
2022/08/18 08:45:43;;;;;;;4.22;1.90;;;20.60;99.90;;;;;;5022329;28;20464;-60
2022/08/18 08:48:17;;;;;;;4.38;1.83;;;20.60;99.90;;;;;;5022953;28;20501;-59
2022/08/18 08:51:06;;;;;;;5.13;1.80;;;20.70;99.90;;;;;;5019046;28;20065;-59
2022/08/18 08:53:38;;;;;;;5.50;1.90;;;20.60;99.90;;;;;;5022133;28;20496;-59
2022/08/18 08:56:13;;;;;;;4.10;1.55;;;20.60;99.90;;;;;;5023096;28;20052;-59
2022/08/18 08:58:48;;;;;;;4.80;1.80;;;20.50;99.90;;;;;;5021235;28;20048;-59
2022/08/18 09:01:28;;;;;;;5.90;1.80;;;20.50;99.90;;;;;;5022340;28;20171;-60
2022/08/18 09:04:31;;;;;;;6.20;2.08;;;20.50;99.90;;;;;;5021024;28;20399;-58
2022/08/18 09:07:08;;;;;;;;;;;20.40;99.90;;;;;;4984241;28;20061;-59
2022/08/18 09:09:36;;;;;;;5.05;1.65;;;20.40;99.90;;;;;;5022631;28;19971;-59
2022/08/18 09:12:17;;;;;;;4.07;1.98;;;20.40;99.90;;;;;;5021466;28;20041;-59
2022/08/18 09:15:15;;;;;;;4.97;2.00;;;20.40;99.90;;;;;;5022424;28;20045;-59
2022/08/18 09:18:25;;;;;;;9.38;2.17;;;20.40;99.90;;;;;;5021708;28;20532;-59
2022/08/18 09:21:00;;;;;;;5.53;2.10;;;20.40;99.90;;;;;;5021804;28;20045;-59
2022/08/18 09:23:38;;;;;;;4.53;2.10;;;20.40;99.90;;;;;;5022624;28;20121;-59
2022/08/18 09:26:43;;;;;;;3.90;2.10;;;20.50;99.90;;;;;;5023158;28;20055;-59
2022/08/18 09:29:48;;;;;;;4.00;2.10;;;20.60;99.90;;;;;;5022710;28;20080;-60
2022/08/18 09:32:20;;;;;;;3.03;1.50;;;20.60;99.90;;;;;;5000779;28;20085;-58
2022/08/18 09:35:04;;;;;;;2.83;1.70;;;20.70;99.90;;;;;;5021641;28;20490;-59
2022/08/18 09:43:51;;;;;;;5.50;1.60;;;21.10;99.90;;;;;;5019702;28;20057;-60
2022/08/18 09:46:42;;;;;;;5.88;2.00;;;21.40;99.90;;;;;;5020282;28;20053;-59
2022/08/18 09:49:26;;;;;;;6.53;1.77;;;21.60;99.90;;;;;;5021371;28;20049;-59
2022/08/18 09:51:58;;;;;;;5.82;1.65;;;21.60;99.90;;;;;;5020960;28;20500;-59
2022/08/18 09:54:27;;;;;;;3.40;1.50;;;21.60;99.90;;;;;;5021109;28;20044;-59
2022/08/18 09:57:17;;;;;;;4.20;1.50;;;21.70;99.90;;;;;;5021821;28;20045;-60
2022/08/18 09:59:43;;;;;;;6.82;1.88;;;21.80;99.90;;;;;;5020125;28;20049;-60
2022/08/18 10:02:12;;;;;;;6.18;1.60;;;21.80;99.90;;;;;;5021802;28;20044;-59
2022/08/18 10:04:50;;;;;;;3.70;1.75;;;21.70;99.90;;;;;;5020412;28;20515;-59
2022/08/18 10:07:35;;;;;;;4.28;1.60;;;21.70;99.90;;;;;;5021756;28;20404;-60
2022/08/18 10:10:06;;;;;;;5.38;1.77;;;21.70;99.90;;;;;;5021107;28;20124;-60
2022/08/18 10:12:38;;;;;;;4.13;1.40;;;21.70;99.90;;;;;;5020908;28;20397;-60
2022/08/18 10:15:29;;;;;;;4.28;1.40;;;21.60;99.90;;;;;;5020455;28;20052;-60
2022/08/18 10:18:48;;;;;;;4.68;1.33;;;21.60;99.90;;;;;;5021230;28;20098;-60
2022/08/18 10:21:17;;;;;;;4.45;1.52;;;21.50;99.90;;;;;;4988032;28;20053;-59
2022/08/18 10:23:53;;;;;;;3.15;1.40;;;21.40;99.90;;;;;;5036661;28;20046;-60
2022/08/18 10:26:32;;;;;;;2.38;1.20;;;21.40;99.90;;;;;;5022590;28;20045;-59
2022/08/18 10:29:01;;;;;;;3.75;1.63;;;21.30;99.90;;;;;;5019913;28;20084;-58
2022/08/18 10:31:29;;;;;;;4.30;1.70;;;21.30;99.90;;;;;;5019798;28;20057;-60
2022/08/18 10:34:10;;;;;;;2.80;1.45;;;21.30;99.90;;;;;;5020487;28;20445;-59
2022/08/18 10:36:47;;;;;;;3.05;1.42;;;21.30;99.90;;;;;;5021384;28;20130;-60
2022/08/18 10:39:20;;;;;;;4.93;1.77;;;21.30;99.90;;;;;;5019690;28;20128;-59
2022/08/18 10:41:59;;;;;;;3.25;1.73;;;21.30;99.90;;;;;;5021089;28;20080;-60
2022/08/18 10:44:26;;;;;;;5.85;1.77;;;21.20;99.90;;;;;;5020613;28;20042;-59
2022/08/18 10:46:53;;;;;;;2.78;1.75;;;21.20;99.90;;;;;;5021494;28;20191;-60
2022/08/18 10:49:24;;;;;;;5.30;1.80;;;21.20;99.90;;;;;;5018796;28;20049;-59
2022/08/18 10:52:41;;;;;;;3.85;1.95;;;21.20;99.90;;;;;;5018262;28;20062;-61
2022/08/18 10:55:33;;;;;;;3.20;1.63;;;21.30;99.90;;;;;;5018527;28;20054;-58
2022/08/18 10:58:14;;;;;;;8.20;2.23;;;21.20;99.90;;;;;;5005161;28;20471;-60
2022/08/18 11:01:10;;;;;;;4.38;1.58;;;21.20;99.90;;;;;;5019031;28;20053;-60
2022/08/18 11:03:47;;;;;;;4.47;2.10;;;21.10;99.90;;;;;;5020007;28;20431;-59
2022/08/18 11:06:19;;;;;;;3.63;1.60;;;21.00;99.90;;;;;;5020655;28;20507;-59
2022/08/18 11:08:49;;;;;;;4.45;1.85;;;21.00;99.90;;;;;;5019117;28;20501;-60
2022/08/18 11:11:21;;;;;;;2.97;1.70;;;21.00;99.90;;;;;;5019382;28;20515;-60
2022/08/18 11:13:52;;;;;;;5.17;2.23;;;21.10;99.90;;;;;;5019861;28;20058;-59
2022/08/18 11:16:32;;;;;;;3.35;1.80;;;21.30;99.90;;;;;;5019786;28;20315;-59
2022/08/18 11:19:11;;;;;;;9.38;2.00;;;21.40;99.90;;;;;;5020220;28;20042;-60
2022/08/18 11:21:37;;;;;;;4.00;2.60;;;21.60;99.90;;;;;;5018597;28;20042;-60
2022/08/18 11:24:19;;;;;;;4.53;1.98;;;21.70;99.90;;;;;;5018253;28;20073;-60
2022/08/18 11:27:16;;;;;;;7.00;2.30;;;21.90;99.90;;;;;;5020043;28;20068;-60
2022/08/18 11:29:43;;;;;;;5.40;2.00;;;22.10;99.90;;;;;;5015733;28;20480;-60
2022/08/18 11:32:24;;;;;;;5.57;1.63;;;22.20;99.90;;;;;;5020295;28;20056;-60
2022/08/18 11:34:56;;;;;;;5.03;1.83;;;22.20;99.90;;;;;;5020150;28;20056;-60
2022/08/18 11:37:40;;;;;;;4.80;1.83;;;22.20;99.90;;;;;;5019446;28;20817;-60
2022/08/18 11:40:32;;;;;;;4.75;1.98;;;22.40;99.90;;;;;;5018049;28;20486;-60
2022/08/18 11:43:03;;;;;;;2.50;1.50;;;22.70;99.90;;;;;;5033751;28;20041;-60
2022/08/18 11:45:54;;;;;;;3.05;1.65;;;22.90;99.90;;;;;;5019986;28;20045;-60
2022/08/18 11:48:20;;;;;;;5.28;1.85;;;23.00;99.90;;;;;;5018848;28;20163;-60
2022/08/18 11:50:54;;;;;;;3.50;1.85;;;23.00;99.90;;;;;;5019102;28;20152;-60
2022/08/18 11:53:50;;;;;;;2.97;1.77;;;22.90;99.90;;;;;;5021444;28;20448;-60
2022/08/18 11:56:19;;;;;;;5.25;1.75;;;22.90;99.90;;;;;;5018332;28;20423;-60
2022/08/18 11:59:01;;;;;;;4.65;2.03;;;23.10;99.90;;;;;;5021324;28;20068;-60
2022/08/18 12:01:34;;;;;;;3.57;1.50;;;23.20;99.90;;;;;;5018150;28;20080;-60
2022/08/18 12:04:06;;;;;;;4.38;1.65;;;23.30;99.90;;;;;;5018430;28;20441;-60
2022/08/18 12:06:33;;;;;;;3.03;1.73;;;23.40;99.90;;;;;;5019165;28;20052;-60
2022/08/18 12:09:25;;;;;;;3.65;1.50;;;23.40;99.90;;;;;;5020868;28;20497;-59
2022/08/18 12:11:59;;;;;;;3.85;1.40;;;23.40;99.90;;;;;;5002141;28;20059;-60
2022/08/18 12:14:32;;;;;;;6.10;1.90;;;23.50;99.90;;;;;;5020105;28;20064;-60
2022/08/18 12:16:58;;;;;;;3.30;1.80;;;23.60;99.90;;;;;;5019055;28;20052;-60
2022/08/18 12:19:26;;;;;;;4.88;2.00;;;23.50;99.90;;;;;;5019045;28;20049;-60
2022/08/18 12:22:00;;;;;;;4.13;1.77;;;23.60;99.90;;;;;;5022530;28;20042;-60
2022/08/18 12:24:31;;;;;;;3.15;1.70;;;23.70;99.90;;;;;;5022012;28;20077;-60
2022/08/18 12:26:58;;;;;;;5.30;1.90;;;23.70;99.90;;;;;;5023806;28;20538;-60
2022/08/18 12:29:25;;;;;;;3.08;1.80;;;23.70;99.90;;;;;;5023512;28;20049;-60
2022/08/18 12:31:53;;;;;;;2.78;1.83;;;23.70;99.90;;;;;;5019909;28;20053;-60
2022/08/18 12:34:25;;;;;;;3.88;1.98;;;23.80;99.90;;;;;;5022780;28;20060;-60
2022/08/18 12:36:54;;;;;;;3.10;1.42;;;23.90;99.80;;;;;;5024025;28;20037;-59
2022/08/18 12:39:19;;;;;;;2.45;1.55;;;24.00;99.20;;;;;;5023465;28;20046;-60
2022/08/18 12:41:45;;;;;;;6.78;1.60;;;24.10;99.10;;;;;;5021976;28;20048;-60
2022/08/18 12:44:11;;;;;;;3.22;1.60;;;24.20;98.90;;;;;;5022140;28;20041;-60
2022/08/18 12:46:38;;;;;;;3.00;1.60;;;24.40;98.70;;;;;;5021506;28;20574;-60
2022/08/18 12:49:08;;;;;;;2.72;1.38;;;24.80;98.30;;;;;;5021952;28;20037;-61
2022/08/18 12:51:34;;;;;;;2.95;1.60;;;25.10;98.10;;;;;;5022068;28;20796;-60
2022/08/18 12:53:59;;;;;;;4.80;1.63;;;25.40;97.60;;;;;;5037816;28;20227;-61
2022/08/18 12:56:30;;;;;;;5.75;1.70;;;25.40;97.20;;;;;;5022680;28;20111;-61
2022/08/18 12:59:02;;;;;;;3.47;1.63;;;25.50;96.70;;;;;;5023765;28;20080;-61
2022/08/18 13:01:28;;;;;;;2.85;1.50;;;25.60;96.50;;;;;;5023254;28;20061;-61
2022/08/18 13:03:55;;;;;;;3.55;1.65;;;25.80;95.80;;;;;;5024284;28;20041;-61
2022/08/18 13:06:25;;;;;;;4.15;1.50;;;26.10;95.90;;;;;;5020926;28;20049;-61
2022/08/18 13:09:00;;;;;;;3.05;1.52;;;26.40;95.90;;;;;;5019923;28;20061;-61
2022/08/18 13:11:25;;;;;;;5.53;1.55;;;26.70;95.20;;;;;;5022234;28;20415;-61
2022/08/18 13:13:52;;;;;;;2.67;1.50;;;26.60;94.20;;;;;;5022897;28;20053;-61
2022/08/18 13:16:19;;;;;;;2.75;1.67;;;26.50;94.10;;;;;;5023055;28;20078;-61
2022/08/18 13:18:45;;;;;;;1.85;1.40;;;26.20;93.30;;;;;;5021278;28;20045;-61
2022/08/18 13:21:13;;;;;;;4.15;1.70;;;25.90;93.20;;;;;;5021587;28;20786;-61
2022/08/18 13:23:40;;;;;;;3.40;1.48;;;25.70;93.40;;;;;;5038993;28;20395;-60
2022/08/18 13:26:10;;;;;;;6.32;1.50;;;25.50;93.40;;;;;;5020830;28;20080;-61
2022/08/18 13:28:36;;;;;;;2.47;1.67;;;25.40;93.70;;;;;;5024094;28;20057;-61
2022/08/18 13:31:03;;;;;;;3.05;1.50;;;25.20;93.50;;;;;;5022134;28;20476;-61
2022/08/18 13:33:31;;;;;;;3.08;1.63;;;25.10;93.70;;;;;;5022933;28;20041;-60
2022/08/18 13:35:58;;;;;;;4.30;1.70;;;25.10;93.80;;;;;;5022717;28;20414;-61
2022/08/18 13:38:24;;;;;;;5.20;1.50;;;25.20;93.80;;;;;;5021148;28;20049;-61